sensor_id;sensor_type;location;lat;lon;timestamp;P1;durP1;ratioP1;P2;durP2;ratioP2
51686;SDS011;37774;52.192;4.584;2023-06-22T00:00:07;43.95;;;19.60;;
51686;SDS011;37774;52.192;4.584;2023-06-22T00:02:55;42.53;;;18.98;;
51686;SDS011;37774;52.192;4.584;2023-06-22T00:05:42;48.65;;;19.83;;
51686;SDS011;37774;52.192;4.584;2023-06-22T00:08:28;42.75;;;21.20;;
51686;SDS011;37774;52.192;4.584;2023-06-22T00:11:13;44.35;;;19.75;;
51686;SDS011;37774;52.192;4.584;2023-06-22T00:13:59;42.17;;;19.55;;
51686;SDS011;37774;52.192;4.584;2023-06-22T00:16:44;45.85;;;20.02;;
51686;SDS011;37774;52.192;4.584;2023-06-22T00:19:32;51.00;;;22.35;;
51686;SDS011;37774;52.192;4.584;2023-06-22T00:22:20;44.78;;;20.45;;
51686;SDS011;37774;52.192;4.584;2023-06-22T00:25:12;49.88;;;21.85;;
51686;SDS011;37774;52.192;4.584;2023-06-22T00:27:57;55.63;;;23.48;;
51686;SDS011;37774;52.192;4.584;2023-06-22T00:30:43;50.28;;;22.45;;
51686;SDS011;37774;52.192;4.584;2023-06-22T00:33:29;48.83;;;20.30;;
51686;SDS011;37774;52.192;4.584;2023-06-22T00:36:15;47.63;;;22.27;;
51686;SDS011;37774;52.192;4.584;2023-06-22T00:39:02;52.72;;;22.35;;
51686;SDS011;37774;52.192;4.584;2023-06-22T00:41:49;39.22;;;19.30;;
51686;SDS011;37774;52.192;4.584;2023-06-22T00:44:34;44.60;;;19.42;;
51686;SDS011;37774;52.192;4.584;2023-06-22T00:47:20;40.05;;;18.75;;
51686;SDS011;37774;52.192;4.584;2023-06-22T00:50:06;42.45;;;19.33;;
51686;SDS011;37774;52.192;4.584;2023-06-22T00:55:42;46.30;;;20.45;;
51686;SDS011;37774;52.192;4.584;2023-06-22T00:58:34;51.30;;;21.50;;
51686;SDS011;37774;52.192;4.584;2023-06-22T01:01:20;56.50;;;22.83;;
51686;SDS011;37774;52.192;4.584;2023-06-22T01:04:08;50.47;;;21.63;;
51686;SDS011;37774;52.192;4.584;2023-06-22T01:06:54;63.05;;;23.98;;
51686;SDS011;37774;52.192;4.584;2023-06-22T01:09:51;54.22;;;21.65;;
51686;SDS011;37774;52.192;4.584;2023-06-22T01:12:44;50.20;;;23.30;;
51686;SDS011;37774;52.192;4.584;2023-06-22T01:15:35;56.08;;;21.65;;
51686;SDS011;37774;52.192;4.584;2023-06-22T01:18:24;55.58;;;23.20;;
51686;SDS011;37774;52.192;4.584;2023-06-22T01:21:15;59.50;;;23.55;;
51686;SDS011;37774;52.192;4.584;2023-06-22T01:24:08;56.20;;;23.50;;
51686;SDS011;37774;52.192;4.584;2023-06-22T01:27:04;61.88;;;24.83;;
51686;SDS011;37774;52.192;4.584;2023-06-22T01:29:59;59.45;;;23.65;;
51686;SDS011;37774;52.192;4.584;2023-06-22T01:32:47;53.17;;;21.52;;
51686;SDS011;37774;52.192;4.584;2023-06-22T01:35:34;51.08;;;22.67;;
51686;SDS011;37774;52.192;4.584;2023-06-22T01:38:20;54.75;;;22.48;;
51686;SDS011;37774;52.192;4.584;2023-06-22T01:41:06;55.83;;;22.75;;
51686;SDS011;37774;52.192;4.584;2023-06-22T01:43:52;50.20;;;21.65;;
51686;SDS011;37774;52.192;4.584;2023-06-22T01:46:40;50.78;;;22.52;;
51686;SDS011;37774;52.192;4.584;2023-06-22T01:52:12;54.20;;;21.50;;
51686;SDS011;37774;52.192;4.584;2023-06-22T01:54:57;48.45;;;21.23;;
51686;SDS011;37774;52.192;4.584;2023-06-22T01:57:43;51.15;;;22.58;;
51686;SDS011;37774;52.192;4.584;2023-06-22T02:00:28;54.92;;;22.58;;
51686;SDS011;37774;52.192;4.584;2023-06-22T02:03:19;69.25;;;25.73;;
51686;SDS011;37774;52.192;4.584;2023-06-22T02:06:08;63.42;;;25.33;;
51686;SDS011;37774;52.192;4.584;2023-06-22T02:08:57;57.17;;;24.92;;
51686;SDS011;37774;52.192;4.584;2023-06-22T02:11:46;55.33;;;20.40;;
51686;SDS011;37774;52.192;4.584;2023-06-22T02:14:33;41.90;;;18.48;;
51686;SDS011;37774;52.192;4.584;2023-06-22T02:17:20;38.20;;;17.42;;
51686;SDS011;37774;52.192;4.584;2023-06-22T02:20:08;45.40;;;18.02;;
51686;SDS011;37774;52.192;4.584;2023-06-22T02:22:58;38.28;;;17.58;;
51686;SDS011;37774;52.192;4.584;2023-06-22T02:25:44;50.05;;;19.88;;
51686;SDS011;37774;52.192;4.584;2023-06-22T02:28:29;46.60;;;18.90;;
51686;SDS011;37774;52.192;4.584;2023-06-22T02:31:14;46.83;;;21.25;;
51686;SDS011;37774;52.192;4.584;2023-06-22T02:33:59;48.47;;;20.88;;
51686;SDS011;37774;52.192;4.584;2023-06-22T02:36:47;63.35;;;24.27;;
51686;SDS011;37774;52.192;4.584;2023-06-22T02:39:35;77.63;;;28.42;;
51686;SDS011;37774;52.192;4.584;2023-06-22T02:42:21;76.25;;;29.58;;
51686;SDS011;37774;52.192;4.584;2023-06-22T02:45:07;70.07;;;27.83;;
51686;SDS011;37774;52.192;4.584;2023-06-22T02:47:53;83.00;;;27.67;;
51686;SDS011;37774;52.192;4.584;2023-06-22T02:50:38;79.88;;;28.35;;
51686;SDS011;37774;52.192;4.584;2023-06-22T02:53:25;70.55;;;28.48;;
51686;SDS011;37774;52.192;4.584;2023-06-22T02:56:11;76.72;;;29.13;;
51686;SDS011;37774;52.192;4.584;2023-06-22T02:58:56;67.20;;;29.58;;
51686;SDS011;37774;52.192;4.584;2023-06-22T03:01:44;67.90;;;29.52;;
51686;SDS011;37774;52.192;4.584;2023-06-22T03:04:30;76.82;;;27.73;;
51686;SDS011;37774;52.192;4.584;2023-06-22T03:07:16;63.15;;;27.83;;
51686;SDS011;37774;52.192;4.584;2023-06-22T03:10:03;48.17;;;21.92;;
51686;SDS011;37774;52.192;4.584;2023-06-22T03:12:49;41.03;;;18.75;;
51686;SDS011;37774;52.192;4.584;2023-06-22T03:15:35;36.40;;;15.90;;
51686;SDS011;37774;52.192;4.584;2023-06-22T03:18:20;51.40;;;19.33;;
51686;SDS011;37774;52.192;4.584;2023-06-22T03:21:07;48.88;;;20.33;;
51686;SDS011;37774;52.192;4.584;2023-06-22T03:23:52;64.97;;;23.73;;
51686;SDS011;37774;52.192;4.584;2023-06-22T03:26:39;66.18;;;24.85;;
51686;SDS011;37774;52.192;4.584;2023-06-22T03:29:24;72.47;;;27.38;;
51686;SDS011;37774;52.192;4.584;2023-06-22T03:32:10;73.90;;;28.83;;
51686;SDS011;37774;52.192;4.584;2023-06-22T03:34:56;80.72;;;29.50;;
51686;SDS011;37774;52.192;4.584;2023-06-22T03:37:42;79.57;;;30.10;;
51686;SDS011;37774;52.192;4.584;2023-06-22T03:40:27;79.25;;;29.23;;
51686;SDS011;37774;52.192;4.584;2023-06-22T03:43:14;82.13;;;29.27;;
51686;SDS011;37774;52.192;4.584;2023-06-22T03:46:00;87.55;;;31.95;;
51686;SDS011;37774;52.192;4.584;2023-06-22T03:48:45;82.82;;;29.52;;
51686;SDS011;37774;52.192;4.584;2023-06-22T03:51:32;81.30;;;29.48;;
51686;SDS011;37774;52.192;4.584;2023-06-22T03:54:18;51.10;;;23.35;;
51686;SDS011;37774;52.192;4.584;2023-06-22T03:57:04;52.45;;;19.27;;
51686;SDS011;37774;52.192;4.584;2023-06-22T03:59:51;53.33;;;20.40;;
51686;SDS011;37774;52.192;4.584;2023-06-22T04:02:37;32.40;;;14.85;;
51686;SDS011;37774;52.192;4.584;2023-06-22T04:05:22;31.50;;;14.70;;
51686;SDS011;37774;52.192;4.584;2023-06-22T04:08:08;43.67;;;17.98;;
51686;SDS011;37774;52.192;4.584;2023-06-22T04:10:53;57.53;;;21.92;;
51686;SDS011;37774;52.192;4.584;2023-06-22T04:13:39;50.30;;;21.58;;
51686;SDS011;37774;52.192;4.584;2023-06-22T04:16:26;67.63;;;24.20;;
51686;SDS011;37774;52.192;4.584;2023-06-22T04:19:11;60.05;;;23.67;;
51686;SDS011;37774;52.192;4.584;2023-06-22T04:22:00;66.43;;;24.65;;
51686;SDS011;37774;52.192;4.584;2023-06-22T04:24:46;59.88;;;25.05;;
51686;SDS011;37774;52.192;4.584;2023-06-22T04:27:31;63.45;;;26.35;;
51686;SDS011;37774;52.192;4.584;2023-06-22T04:30:20;76.03;;;29.23;;
51686;SDS011;37774;52.192;4.584;2023-06-22T04:33:07;79.38;;;31.15;;
51686;SDS011;37774;52.192;4.584;2023-06-22T04:35:53;71.10;;;32.08;;
51686;SDS011;37774;52.192;4.584;2023-06-22T04:38:38;85.97;;;32.38;;
51686;SDS011;37774;52.192;4.584;2023-06-22T04:41:24;68.72;;;30.52;;
51686;SDS011;37774;52.192;4.584;2023-06-22T04:44:09;81.40;;;29.95;;
51686;SDS011;37774;52.192;4.584;2023-06-22T04:46:56;78.88;;;31.55;;
51686;SDS011;37774;52.192;4.584;2023-06-22T04:49:47;78.22;;;30.60;;
51686;SDS011;37774;52.192;4.584;2023-06-22T04:52:33;73.25;;;32.15;;
51686;SDS011;37774;52.192;4.584;2023-06-22T04:55:19;79.55;;;30.52;;
51686;SDS011;37774;52.192;4.584;2023-06-22T04:58:04;76.07;;;32.67;;
51686;SDS011;37774;52.192;4.584;2023-06-22T05:00:50;79.13;;;31.65;;
51686;SDS011;37774;52.192;4.584;2023-06-22T05:03:35;72.55;;;29.85;;
51686;SDS011;37774;52.192;4.584;2023-06-22T05:06:23;66.25;;;29.17;;
51686;SDS011;37774;52.192;4.584;2023-06-22T05:09:09;81.40;;;30.48;;
51686;SDS011;37774;52.192;4.584;2023-06-22T05:11:55;71.60;;;30.77;;
51686;SDS011;37774;52.192;4.584;2023-06-22T05:14:41;66.82;;;29.42;;
51686;SDS011;37774;52.192;4.584;2023-06-22T05:17:27;64.30;;;28.25;;
51686;SDS011;37774;52.192;4.584;2023-06-22T05:20:12;75.88;;;30.35;;
51686;SDS011;37774;52.192;4.584;2023-06-22T05:23:03;68.32;;;29.98;;
51686;SDS011;37774;52.192;4.584;2023-06-22T05:25:48;68.40;;;29.33;;
51686;SDS011;37774;52.192;4.584;2023-06-22T05:28:33;64.13;;;28.17;;
51686;SDS011;37774;52.192;4.584;2023-06-22T05:31:19;53.78;;;25.10;;
51686;SDS011;37774;52.192;4.584;2023-06-22T05:34:05;61.33;;;27.95;;
51686;SDS011;37774;52.192;4.584;2023-06-22T05:36:50;60.90;;;27.58;;
51686;SDS011;37774;52.192;4.584;2023-06-22T05:39:37;61.53;;;27.00;;
51686;SDS011;37774;52.192;4.584;2023-06-22T05:42:22;67.63;;;28.05;;
51686;SDS011;37774;52.192;4.584;2023-06-22T05:45:09;71.63;;;26.90;;
51686;SDS011;37774;52.192;4.584;2023-06-22T05:47:54;49.15;;;26.00;;
51686;SDS011;37774;52.192;4.584;2023-06-22T05:50:40;55.63;;;26.90;;
51686;SDS011;37774;52.192;4.584;2023-06-22T05:53:25;56.67;;;27.33;;
51686;SDS011;37774;52.192;4.584;2023-06-22T05:56:12;54.35;;;26.45;;
51686;SDS011;37774;52.192;4.584;2023-06-22T05:58:58;54.08;;;25.52;;
51686;SDS011;37774;52.192;4.584;2023-06-22T06:01:43;55.15;;;26.25;;
51686;SDS011;37774;52.192;4.584;2023-06-22T06:04:28;51.13;;;24.77;;
51686;SDS011;37774;52.192;4.584;2023-06-22T06:07:14;45.58;;;23.33;;
51686;SDS011;37774;52.192;4.584;2023-06-22T06:09:59;41.95;;;21.08;;
51686;SDS011;37774;52.192;4.584;2023-06-22T06:12:46;43.65;;;20.80;;
51686;SDS011;37774;52.192;4.584;2023-06-22T06:15:32;49.95;;;22.88;;
51686;SDS011;37774;52.192;4.584;2023-06-22T06:18:18;41.85;;;21.75;;
51686;SDS011;37774;52.192;4.584;2023-06-22T06:21:04;46.90;;;22.05;;
51686;SDS011;37774;52.192;4.584;2023-06-22T06:23:49;35.15;;;18.50;;
51686;SDS011;37774;52.192;4.584;2023-06-22T06:26:34;35.70;;;18.70;;
51686;SDS011;37774;52.192;4.584;2023-06-22T06:29:21;28.38;;;12.48;;
51686;SDS011;37774;52.192;4.584;2023-06-22T06:32:07;23.63;;;11.82;;
51686;SDS011;37774;52.192;4.584;2023-06-22T06:34:53;18.37;;;11.57;;
51686;SDS011;37774;52.192;4.584;2023-06-22T06:37:39;22.65;;;11.07;;
51686;SDS011;37774;52.192;4.584;2023-06-22T06:40:25;18.38;;;10.55;;
51686;SDS011;37774;52.192;4.584;2023-06-22T06:43:11;25.50;;;11.70;;
51686;SDS011;37774;52.192;4.584;2023-06-22T06:45:58;16.58;;;9.48;;
51686;SDS011;37774;52.192;4.584;2023-06-22T06:48:44;18.92;;;9.43;;
51686;SDS011;37774;52.192;4.584;2023-06-22T06:51:30;19.98;;;8.48;;
51686;SDS011;37774;52.192;4.584;2023-06-22T06:54:15;15.50;;;8.52;;
51686;SDS011;37774;52.192;4.584;2023-06-22T06:57:04;14.15;;;8.50;;
51686;SDS011;37774;52.192;4.584;2023-06-22T06:59:50;18.98;;;9.00;;
51686;SDS011;37774;52.192;4.584;2023-06-22T07:02:37;19.27;;;8.50;;
51686;SDS011;37774;52.192;4.584;2023-06-22T07:05:23;17.40;;;8.80;;
51686;SDS011;37774;52.192;4.584;2023-06-22T07:08:09;14.88;;;9.18;;
51686;SDS011;37774;52.192;4.584;2023-06-22T07:10:54;17.25;;;8.20;;
51686;SDS011;37774;52.192;4.584;2023-06-22T07:13:40;15.50;;;8.23;;
51686;SDS011;37774;52.192;4.584;2023-06-22T07:16:25;14.27;;;7.13;;
51686;SDS011;37774;52.192;4.584;2023-06-22T07:19:13;16.67;;;7.37;;
51686;SDS011;37774;52.192;4.584;2023-06-22T07:21:58;11.85;;;6.30;;
51686;SDS011;37774;52.192;4.584;2023-06-22T07:24:44;15.43;;;6.10;;
51686;SDS011;37774;52.192;4.584;2023-06-22T07:27:29;18.73;;;7.38;;
51686;SDS011;37774;52.192;4.584;2023-06-22T07:30:19;10.50;;;5.57;;
51686;SDS011;37774;52.192;4.584;2023-06-22T07:33:05;12.40;;;5.63;;
51686;SDS011;37774;52.192;4.584;2023-06-22T07:35:53;9.88;;;5.22;;
51686;SDS011;37774;52.192;4.584;2023-06-22T07:38:38;11.57;;;5.63;;
51686;SDS011;37774;52.192;4.584;2023-06-22T07:41:24;13.80;;;6.63;;
51686;SDS011;37774;52.192;4.584;2023-06-22T07:44:09;12.98;;;6.57;;
51686;SDS011;37774;52.192;4.584;2023-06-22T07:46:55;13.23;;;6.50;;
51686;SDS011;37774;52.192;4.584;2023-06-22T07:49:41;11.35;;;6.32;;
51686;SDS011;37774;52.192;4.584;2023-06-22T07:52:28;12.00;;;5.57;;
51686;SDS011;37774;52.192;4.584;2023-06-22T07:55:13;9.70;;;6.30;;
51686;SDS011;37774;52.192;4.584;2023-06-22T07:57:59;12.15;;;5.35;;
51686;SDS011;37774;52.192;4.584;2023-06-22T08:00:44;12.32;;;5.78;;
51686;SDS011;37774;52.192;4.584;2023-06-22T08:03:30;9.65;;;5.40;;
51686;SDS011;37774;52.192;4.584;2023-06-22T08:06:15;13.68;;;6.55;;
51686;SDS011;37774;52.192;4.584;2023-06-22T08:09:02;13.43;;;6.75;;
51686;SDS011;37774;52.192;4.584;2023-06-22T08:11:48;13.40;;;6.43;;
51686;SDS011;37774;52.192;4.584;2023-06-22T08:14:33;13.98;;;6.32;;
51686;SDS011;37774;52.192;4.584;2023-06-22T08:17:22;10.23;;;5.55;;
51686;SDS011;37774;52.192;4.584;2023-06-22T08:20:09;14.35;;;6.25;;
51686;SDS011;37774;52.192;4.584;2023-06-22T08:25:42;12.85;;;6.63;;
51686;SDS011;37774;52.192;4.584;2023-06-22T08:28:27;14.32;;;6.28;;
51686;SDS011;37774;52.192;4.584;2023-06-22T08:31:13;10.95;;;5.40;;
51686;SDS011;37774;52.192;4.584;2023-06-22T08:33:59;11.93;;;6.13;;
51686;SDS011;37774;52.192;4.584;2023-06-22T08:36:45;14.38;;;5.65;;
51686;SDS011;37774;52.192;4.584;2023-06-22T08:39:35;13.93;;;6.50;;
51686;SDS011;37774;52.192;4.584;2023-06-22T08:42:21;14.40;;;6.57;;
51686;SDS011;37774;52.192;4.584;2023-06-22T08:45:08;15.07;;;7.72;;
51686;SDS011;37774;52.192;4.584;2023-06-22T08:47:55;12.27;;;6.20;;
51686;SDS011;37774;52.192;4.584;2023-06-22T08:50:40;15.57;;;8.10;;
51686;SDS011;37774;52.192;4.584;2023-06-22T08:53:26;20.30;;;9.30;;
51686;SDS011;37774;52.192;4.584;2023-06-22T08:56:11;15.90;;;10.43;;
51686;SDS011;37774;52.192;4.584;2023-06-22T08:58:58;20.45;;;9.88;;
51686;SDS011;37774;52.192;4.584;2023-06-22T09:01:43;14.43;;;8.70;;
51686;SDS011;37774;52.192;4.584;2023-06-22T09:04:32;19.95;;;8.55;;
51686;SDS011;37774;52.192;4.584;2023-06-22T09:07:18;18.92;;;10.75;;
51686;SDS011;37774;52.192;4.584;2023-06-22T09:10:06;18.20;;;9.38;;
51686;SDS011;37774;52.192;4.584;2023-06-22T09:12:52;15.52;;;9.30;;
51686;SDS011;37774;52.192;4.584;2023-06-22T09:15:39;16.05;;;8.38;;
51686;SDS011;37774;52.192;4.584;2023-06-22T09:18:24;13.50;;;8.43;;
51686;SDS011;37774;52.192;4.584;2023-06-22T09:21:09;15.32;;;8.07;;
51686;SDS011;37774;52.192;4.584;2023-06-22T09:23:55;15.05;;;9.50;;
51686;SDS011;37774;52.192;4.584;2023-06-22T09:26:40;15.75;;;8.48;;
51686;SDS011;37774;52.192;4.584;2023-06-22T09:29:26;16.58;;;8.43;;
51686;SDS011;37774;52.192;4.584;2023-06-22T09:32:13;15.00;;;8.65;;
51686;SDS011;37774;52.192;4.584;2023-06-22T09:34:58;17.48;;;9.48;;
51686;SDS011;37774;52.192;4.584;2023-06-22T09:37:44;18.52;;;9.23;;
51686;SDS011;37774;52.192;4.584;2023-06-22T09:40:29;14.77;;;9.32;;
51686;SDS011;37774;52.192;4.584;2023-06-22T09:43:16;15.20;;;8.57;;
51686;SDS011;37774;52.192;4.584;2023-06-22T09:46:01;18.05;;;8.65;;
51686;SDS011;37774;52.192;4.584;2023-06-22T09:48:48;20.02;;;8.10;;
51686;SDS011;37774;52.192;4.584;2023-06-22T09:51:34;14.13;;;7.00;;
51686;SDS011;37774;52.192;4.584;2023-06-22T09:54:19;14.95;;;8.52;;
51686;SDS011;37774;52.192;4.584;2023-06-22T09:57:05;23.27;;;9.57;;
51686;SDS011;37774;52.192;4.584;2023-06-22T09:59:50;16.60;;;7.88;;
51686;SDS011;37774;52.192;4.584;2023-06-22T10:02:36;15.05;;;8.55;;
51686;SDS011;37774;52.192;4.584;2023-06-22T10:05:23;10.52;;;6.70;;
51686;SDS011;37774;52.192;4.584;2023-06-22T10:08:08;12.65;;;5.28;;
51686;SDS011;37774;52.192;4.584;2023-06-22T10:10:54;7.90;;;5.45;;
51686;SDS011;37774;52.192;4.584;2023-06-22T10:13:39;11.52;;;6.28;;
51686;SDS011;37774;52.192;4.584;2023-06-22T10:16:30;13.98;;;7.43;;
51686;SDS011;37774;52.192;4.584;2023-06-22T10:19:16;12.52;;;7.80;;
51686;SDS011;37774;52.192;4.584;2023-06-22T10:22:03;10.85;;;7.45;;
51686;SDS011;37774;52.192;4.584;2023-06-22T10:24:49;12.95;;;7.72;;
51686;SDS011;37774;52.192;4.584;2023-06-22T10:27:34;15.25;;;9.65;;
51686;SDS011;37774;52.192;4.584;2023-06-22T10:30:20;13.38;;;7.57;;
51686;SDS011;37774;52.192;4.584;2023-06-22T10:33:05;14.07;;;8.20;;
51686;SDS011;37774;52.192;4.584;2023-06-22T10:35:51;13.27;;;7.43;;
51686;SDS011;37774;52.192;4.584;2023-06-22T10:38:38;17.95;;;6.50;;
51686;SDS011;37774;52.192;4.584;2023-06-22T10:41:23;12.63;;;7.57;;
51686;SDS011;37774;52.192;4.584;2023-06-22T10:44:09;12.80;;;7.43;;
51686;SDS011;37774;52.192;4.584;2023-06-22T10:46:55;14.48;;;9.20;;
51686;SDS011;37774;52.192;4.584;2023-06-22T10:49:41;14.93;;;9.38;;
51686;SDS011;37774;52.192;4.584;2023-06-22T10:52:26;19.20;;;11.05;;
51686;SDS011;37774;52.192;4.584;2023-06-22T10:55:13;20.55;;;11.10;;
51686;SDS011;37774;52.192;4.584;2023-06-22T10:57:59;15.70;;;10.13;;
51686;SDS011;37774;52.192;4.584;2023-06-22T11:00:44;19.35;;;9.60;;
51686;SDS011;37774;52.192;4.584;2023-06-22T11:03:30;22.20;;;10.88;;
51686;SDS011;37774;52.192;4.584;2023-06-22T11:06:16;15.65;;;10.25;;
51686;SDS011;37774;52.192;4.584;2023-06-22T11:09:01;19.58;;;10.85;;
51686;SDS011;37774;52.192;4.584;2023-06-22T11:11:49;17.33;;;10.80;;
51686;SDS011;37774;52.192;4.584;2023-06-22T11:14:37;22.50;;;9.82;;
51686;SDS011;37774;52.192;4.584;2023-06-22T11:17:23;19.33;;;10.73;;
51686;SDS011;37774;52.192;4.584;2023-06-22T11:20:09;17.15;;;9.43;;
51686;SDS011;37774;52.192;4.584;2023-06-22T11:22:55;20.15;;;10.80;;
51686;SDS011;37774;52.192;4.584;2023-06-22T11:25:40;19.27;;;11.15;;
51686;SDS011;37774;52.192;4.584;2023-06-22T11:28:28;15.93;;;9.18;;
51686;SDS011;37774;52.192;4.584;2023-06-22T11:31:13;29.15;;;12.05;;
51686;SDS011;37774;52.192;4.584;2023-06-22T11:33:59;22.42;;;12.73;;
51686;SDS011;37774;52.192;4.584;2023-06-22T11:36:44;25.20;;;12.48;;
51686;SDS011;37774;52.192;4.584;2023-06-22T11:39:31;21.73;;;11.35;;
51686;SDS011;37774;52.192;4.584;2023-06-22T11:42:17;18.75;;;11.35;;
51686;SDS011;37774;52.192;4.584;2023-06-22T11:45:05;22.70;;;12.63;;
51686;SDS011;37774;52.192;4.584;2023-06-22T11:47:51;20.58;;;12.43;;
51686;SDS011;37774;52.192;4.584;2023-06-22T11:50:36;26.58;;;12.20;;
51686;SDS011;37774;52.192;4.584;2023-06-22T11:53:23;25.50;;;13.10;;
51686;SDS011;37774;52.192;4.584;2023-06-22T11:56:10;19.30;;;11.90;;
51686;SDS011;37774;52.192;4.584;2023-06-22T11:58:55;20.25;;;12.50;;
51686;SDS011;37774;52.192;4.584;2023-06-22T12:01:42;22.02;;;13.32;;
51686;SDS011;37774;52.192;4.584;2023-06-22T12:04:27;23.00;;;12.82;;
51686;SDS011;37774;52.192;4.584;2023-06-22T12:07:13;20.23;;;12.27;;
51686;SDS011;37774;52.192;4.584;2023-06-22T12:09:58;21.85;;;12.45;;
51686;SDS011;37774;52.192;4.584;2023-06-22T12:12:43;21.45;;;13.25;;
51686;SDS011;37774;52.192;4.584;2023-06-22T12:15:29;24.65;;;13.25;;
51686;SDS011;37774;52.192;4.584;2023-06-22T12:18:16;21.38;;;12.70;;
51686;SDS011;37774;52.192;4.584;2023-06-22T12:21:04;21.35;;;11.82;;
51686;SDS011;37774;52.192;4.584;2023-06-22T12:23:49;21.73;;;11.90;;
51686;SDS011;37774;52.192;4.584;2023-06-22T12:26:34;21.33;;;12.70;;
51686;SDS011;37774;52.192;4.584;2023-06-22T12:29:20;26.50;;;12.50;;
51686;SDS011;37774;52.192;4.584;2023-06-22T12:32:06;18.88;;;11.77;;
51686;SDS011;37774;52.192;4.584;2023-06-22T12:34:53;21.80;;;12.73;;
51686;SDS011;37774;52.192;4.584;2023-06-22T12:37:39;21.02;;;11.90;;
51686;SDS011;37774;52.192;4.584;2023-06-22T12:40:25;23.95;;;12.27;;
51686;SDS011;37774;52.192;4.584;2023-06-22T12:43:10;23.95;;;11.85;;
51686;SDS011;37774;52.192;4.584;2023-06-22T12:45:56;19.58;;;11.20;;
51686;SDS011;37774;52.192;4.584;2023-06-22T12:48:41;17.50;;;10.60;;
51686;SDS011;37774;52.192;4.584;2023-06-22T12:51:28;17.85;;;12.23;;
51686;SDS011;37774;52.192;4.584;2023-06-22T12:54:13;19.73;;;11.27;;
51686;SDS011;37774;52.192;4.584;2023-06-22T12:56:59;20.05;;;10.50;;
51686;SDS011;37774;52.192;4.584;2023-06-22T12:59:44;23.35;;;11.20;;
51686;SDS011;37774;52.192;4.584;2023-06-22T13:02:30;21.13;;;11.00;;
51686;SDS011;37774;52.192;4.584;2023-06-22T13:05:15;18.48;;;10.52;;
51686;SDS011;37774;52.192;4.584;2023-06-22T13:08:02;22.95;;;11.18;;
51686;SDS011;37774;52.192;4.584;2023-06-22T13:10:48;22.50;;;11.73;;
51686;SDS011;37774;52.192;4.584;2023-06-22T13:13:33;18.95;;;10.57;;
51686;SDS011;37774;52.192;4.584;2023-06-22T13:16:18;21.45;;;10.98;;
51686;SDS011;37774;52.192;4.584;2023-06-22T13:19:04;25.25;;;11.68;;
51686;SDS011;37774;52.192;4.584;2023-06-22T13:21:49;15.60;;;10.15;;
51686;SDS011;37774;52.192;4.584;2023-06-22T13:24:36;20.60;;;11.57;;
51686;SDS011;37774;52.192;4.584;2023-06-22T13:27:21;22.33;;;11.50;;
51686;SDS011;37774;52.192;4.584;2023-06-22T13:30:07;18.83;;;11.40;;
51686;SDS011;37774;52.192;4.584;2023-06-22T13:32:53;18.30;;;10.60;;
51686;SDS011;37774;52.192;4.584;2023-06-22T13:35:39;18.27;;;10.35;;
51686;SDS011;37774;52.192;4.584;2023-06-22T13:38:26;20.15;;;10.98;;
51686;SDS011;37774;52.192;4.584;2023-06-22T13:41:13;16.48;;;9.32;;
51686;SDS011;37774;52.192;4.584;2023-06-22T13:46:44;20.73;;;10.50;;
51686;SDS011;37774;52.192;4.584;2023-06-22T13:49:29;15.10;;;9.60;;
51686;SDS011;37774;52.192;4.584;2023-06-22T13:52:14;19.05;;;9.68;;
51686;SDS011;37774;52.192;4.584;2023-06-22T13:55:00;14.00;;;9.07;;
51686;SDS011;37774;52.192;4.584;2023-06-22T13:57:47;15.43;;;9.75;;
51686;SDS011;37774;52.192;4.584;2023-06-22T14:00:32;17.67;;;9.90;;
51686;SDS011;37774;52.192;4.584;2023-06-22T14:03:17;17.35;;;9.52;;
51686;SDS011;37774;52.192;4.584;2023-06-22T14:06:03;15.38;;;9.48;;
51686;SDS011;37774;52.192;4.584;2023-06-22T14:08:48;15.05;;;9.48;;
51686;SDS011;37774;52.192;4.584;2023-06-22T14:11:34;14.48;;;9.63;;
51686;SDS011;37774;52.192;4.584;2023-06-22T14:14:21;17.05;;;9.82;;
51686;SDS011;37774;52.192;4.584;2023-06-22T14:19:52;17.30;;;9.68;;
51686;SDS011;37774;52.192;4.584;2023-06-22T14:22:37;23.98;;;9.98;;
51686;SDS011;37774;52.192;4.584;2023-06-22T14:25:24;18.60;;;9.48;;
51686;SDS011;37774;52.192;4.584;2023-06-22T14:28:09;15.23;;;10.27;;
51686;SDS011;37774;52.192;4.584;2023-06-22T14:30:56;13.48;;;9.43;;
51686;SDS011;37774;52.192;4.584;2023-06-22T14:33:45;19.30;;;9.88;;
51686;SDS011;37774;52.192;4.584;2023-06-22T14:36:31;20.95;;;10.25;;
51686;SDS011;37774;52.192;4.584;2023-06-22T14:39:16;17.63;;;9.35;;
51686;SDS011;37774;52.192;4.584;2023-06-22T14:42:02;17.10;;;9.07;;
51686;SDS011;37774;52.192;4.584;2023-06-22T14:44:48;18.73;;;9.38;;
51686;SDS011;37774;52.192;4.584;2023-06-22T14:47:35;13.35;;;8.00;;
51686;SDS011;37774;52.192;4.584;2023-06-22T14:50:20;15.43;;;7.68;;
51686;SDS011;37774;52.192;4.584;2023-06-22T14:53:05;12.02;;;7.25;;
51686;SDS011;37774;52.192;4.584;2023-06-22T14:55:51;16.48;;;7.10;;
51686;SDS011;37774;52.192;4.584;2023-06-22T14:58:37;14.32;;;7.43;;
51686;SDS011;37774;52.192;4.584;2023-06-22T15:01:29;10.05;;;6.72;;
51686;SDS011;37774;52.192;4.584;2023-06-22T15:04:15;14.70;;;8.18;;
51686;SDS011;37774;52.192;4.584;2023-06-22T15:07:01;11.43;;;7.43;;
51686;SDS011;37774;52.192;4.584;2023-06-22T15:09:46;15.23;;;6.43;;
51686;SDS011;37774;52.192;4.584;2023-06-22T15:12:31;13.45;;;6.82;;
51686;SDS011;37774;52.192;4.584;2023-06-22T15:15:17;13.63;;;7.03;;
51686;SDS011;37774;52.192;4.584;2023-06-22T15:18:02;14.88;;;6.97;;
51686;SDS011;37774;52.192;4.584;2023-06-22T15:20:49;16.92;;;6.93;;
51686;SDS011;37774;52.192;4.584;2023-06-22T15:23:35;16.38;;;6.40;;
51686;SDS011;37774;52.192;4.584;2023-06-22T15:26:20;13.93;;;6.85;;
51686;SDS011;37774;52.192;4.584;2023-06-22T15:29:05;13.07;;;6.22;;
51686;SDS011;37774;52.192;4.584;2023-06-22T15:31:51;10.77;;;6.40;;
51686;SDS011;37774;52.192;4.584;2023-06-22T15:34:37;14.35;;;6.13;;
51686;SDS011;37774;52.192;4.584;2023-06-22T15:37:24;11.90;;;5.38;;
51686;SDS011;37774;52.192;4.584;2023-06-22T15:40:09;13.30;;;6.40;;
51686;SDS011;37774;52.192;4.584;2023-06-22T15:42:55;14.40;;;6.03;;
51686;SDS011;37774;52.192;4.584;2023-06-22T15:45:40;22.52;;;6.13;;
51686;SDS011;37774;52.192;4.584;2023-06-22T15:48:26;14.23;;;6.75;;
51686;SDS011;37774;52.192;4.584;2023-06-22T15:51:11;19.58;;;6.75;;
51686;SDS011;37774;52.192;4.584;2023-06-22T15:53:59;12.82;;;6.35;;
51686;SDS011;37774;52.192;4.584;2023-06-22T15:56:44;15.00;;;6.53;;
51686;SDS011;37774;52.192;4.584;2023-06-22T15:59:29;9.43;;;5.30;;
51686;SDS011;37774;52.192;4.584;2023-06-22T16:02:15;14.57;;;6.15;;
51686;SDS011;37774;52.192;4.584;2023-06-22T16:05:00;8.60;;;5.15;;
51686;SDS011;37774;52.192;4.584;2023-06-22T16:07:46;11.90;;;6.10;;
51686;SDS011;37774;52.192;4.584;2023-06-22T16:10:33;14.25;;;5.45;;
51686;SDS011;37774;52.192;4.584;2023-06-22T16:13:19;7.28;;;4.93;;
51686;SDS011;37774;52.192;4.584;2023-06-22T16:16:04;12.57;;;5.82;;
51686;SDS011;37774;52.192;4.584;2023-06-22T16:18:50;11.82;;;5.47;;
51686;SDS011;37774;52.192;4.584;2023-06-22T16:21:35;7.47;;;4.75;;
51686;SDS011;37774;52.192;4.584;2023-06-22T16:24:23;12.32;;;5.15;;
51686;SDS011;37774;52.192;4.584;2023-06-22T16:29:54;17.70;;;5.28;;
51686;SDS011;37774;52.192;4.584;2023-06-22T16:32:48;11.43;;;5.43;;
51686;SDS011;37774;52.192;4.584;2023-06-22T16:35:35;10.68;;;5.22;;